createdAt,value
2023-04-30T00:00:36.405Z,17.33
2023-04-30T00:01:33.520Z,18.15
2023-04-30T00:02:30.576Z,18.12
2023-04-30T00:03:29.836Z,16.52
2023-04-30T00:04:27.179Z,15.63
2023-04-30T00:05:24.544Z,18.30
2023-04-30T00:06:21.544Z,17.62
2023-04-30T00:07:18.456Z,17.73
2023-04-30T00:08:15.473Z,16.90
2023-04-30T00:09:12.585Z,16.73
2023-04-30T00:10:11.218Z,16.98
2023-04-30T00:11:08.151Z,17.45
2023-04-30T00:12:05.371Z,17.50
2023-04-30T00:13:02.299Z,18.20
2023-04-30T00:13:59.232Z,19.10
2023-04-30T00:14:56.808Z,17.00
2023-04-30T00:15:53.857Z,17.15
2023-04-30T00:16:51.089Z,17.70
2023-04-30T00:17:48.193Z,17.25
2023-04-30T00:18:45.269Z,18.12
2023-04-30T00:19:42.735Z,19.17
2023-04-30T00:20:39.679Z,18.87
2023-04-30T00:21:36.814Z,18.45
2023-04-30T00:22:33.847Z,18.23
2023-04-30T00:23:30.828Z,19.98
2023-04-30T00:24:28.849Z,17.77
2023-04-30T00:25:25.837Z,18.83
2023-04-30T00:26:22.767Z,18.20
2023-04-30T00:27:19.750Z,18.20
2023-04-30T00:28:16.769Z,17.85
2023-04-30T00:29:13.778Z,17.60
2023-04-30T00:30:11.458Z,19.05
2023-04-30T00:31:09.598Z,17.33
2023-04-30T00:32:06.612Z,17.10
2023-04-30T00:33:03.745Z,17.58
2023-04-30T00:34:00.761Z,18.15
2023-04-30T00:34:57.886Z,17.65
2023-04-30T00:35:54.823Z,18.17
2023-04-30T00:36:51.876Z,16.73
2023-04-30T00:37:48.997Z,17.90
2023-04-30T00:38:45.997Z,19.80
2023-04-30T00:39:42.857Z,19.05
2023-04-30T00:40:42.072Z,18.08
2023-04-30T00:41:39.118Z,19.87
2023-04-30T00:42:36.077Z,20.40
2023-04-30T00:43:34.780Z,19.95
2023-04-30T00:44:31.726Z,19.58
2023-04-30T00:45:28.715Z,18.83
2023-04-30T00:46:26.007Z,19.87
2023-04-30T00:47:23.234Z,20.40
2023-04-30T00:48:20.257Z,24.02
2023-04-30T00:49:17.253Z,20.98
2023-04-30T00:50:16.319Z,21.08
2023-04-30T00:51:13.586Z,20.35
2023-04-30T00:52:10.860Z,21.37
2023-04-30T00:53:07.916Z,20.15
2023-04-30T00:54:05.736Z,20.42
2023-04-30T00:55:02.695Z,21.23
2023-04-30T00:55:59.694Z,21.23
2023-04-30T00:56:56.790Z,19.70
2023-04-30T00:57:54.476Z,19.92
2023-04-30T00:58:54.632Z,22.65
2023-04-30T00:59:58.334Z,22.83
2023-04-30T01:00:55.580Z,31.35
2023-04-30T01:01:52.905Z,26.23
2023-04-30T01:02:50.062Z,22.02
2023-04-30T01:03:47.233Z,20.65
2023-04-30T01:04:44.426Z,21.65
2023-04-30T01:05:41.402Z,23.67
2023-04-30T01:06:38.768Z,22.27
2023-04-30T01:07:38.721Z,33.25
2023-04-30T01:08:35.736Z,26.15
2023-04-30T01:09:33.006Z,25.40
2023-04-30T01:10:34.663Z,34.50
2023-04-30T01:11:41.030Z,31.92
2023-04-30T01:12:57.541Z,36.53
2023-04-30T01:14:14.163Z,29.95
2023-04-30T01:15:39.536Z,33.88
2023-04-30T01:17:08.906Z,40.70
2023-04-30T01:18:34.959Z,37.22
2023-04-30T01:19:46.347Z,38.33
2023-04-30T01:21:43.706Z,41.60
2023-04-30T01:22:55.714Z,43.58
2023-04-30T01:24:10.764Z,46.95
2023-04-30T01:25:47.033Z,45.10
2023-04-30T01:27:21.832Z,44.72
2023-04-30T01:28:22.170Z,47.95
2023-04-30T01:29:20.165Z,50.53
2023-04-30T01:30:17.745Z,52.58
2023-04-30T01:31:16.716Z,55.25
2023-04-30T01:32:13.657Z,56.35
2023-04-30T01:33:11.748Z,54.90
2023-04-30T01:34:08.792Z,55.28
2023-04-30T01:35:06.004Z,54.30
2023-04-30T01:36:14.214Z,58.85
2023-04-30T01:37:24.380Z,62.53
2023-04-30T01:38:39.924Z,58.25
2023-04-30T01:40:04.075Z,58.00
2023-04-30T01:41:21.763Z,56.28
2023-04-30T01:42:23.778Z,53.47
2023-04-30T01:43:40.565Z,52.35
2023-04-30T01:44:59.693Z,51.67
2023-04-30T01:46:18.077Z,52.67
2023-04-30T01:47:40.820Z,52.35
2023-04-30T01:48:40.935Z,44.33
2023-04-30T01:50:02.786Z,46.35
2023-04-30T01:51:10.206Z,44.15
2023-04-30T01:52:18.656Z,48.08
2023-04-30T01:53:40.789Z,46.17
2023-04-30T01:54:51.730Z,45.00
2023-04-30T01:56:56.920Z,39.72
2023-04-30T01:57:59.211Z,36.40
2023-04-30T01:58:56.369Z,39.80
2023-04-30T01:59:53.492Z,39.90
2023-04-30T02:00:50.579Z,38.03
2023-04-30T02:01:47.660Z,37.17
2023-04-30T02:02:44.890Z,37.42
2023-04-30T02:03:42.158Z,35.00
2023-04-30T02:04:39.269Z,34.83
2023-04-30T02:05:36.228Z,37.00
2023-04-30T02:06:33.651Z,35.10
2023-04-30T02:07:44.163Z,31.50
2023-04-30T02:08:41.163Z,33.88
2023-04-30T02:09:38.044Z,33.72
2023-04-30T02:10:35.124Z,30.90
2023-04-30T02:11:32.314Z,32.90
2023-04-30T02:12:30.450Z,31.27
2023-04-30T02:13:27.514Z,29.83
2023-04-30T02:14:24.546Z,28.35
2023-04-30T02:15:21.635Z,26.87
2023-04-30T02:16:18.706Z,29.12
2023-04-30T02:17:15.625Z,27.27
2023-04-30T02:18:12.715Z,26.02
2023-04-30T02:19:09.644Z,25.02
2023-04-30T02:20:07.510Z,26.17
2023-04-30T02:21:04.792Z,27.87
2023-04-30T02:22:02.834Z,26.08
2023-04-30T02:23:00.915Z,25.73
2023-04-30T02:23:57.893Z,23.70
2023-04-30T02:24:56.112Z,23.10
2023-04-30T02:25:53.073Z,25.55
2023-04-30T02:26:50.015Z,24.67
2023-04-30T02:27:47.144Z,22.25
2023-04-30T02:28:44.077Z,23.20
2023-04-30T02:29:41.079Z,22.70
2023-04-30T02:30:38.047Z,22.87
2023-04-30T02:31:34.995Z,21.60
2023-04-30T02:32:31.989Z,22.60
2023-04-30T02:33:29.028Z,20.77
2023-04-30T02:34:26.245Z,21.73
2023-04-30T02:35:23.305Z,21.42
2023-04-30T02:36:20.251Z,20.42
2023-04-30T02:37:17.275Z,19.92
2023-04-30T02:38:14.270Z,21.35
2023-04-30T02:39:11.351Z,20.08
2023-04-30T02:40:08.988Z,19.73
2023-04-30T02:41:06.084Z,18.52
2023-04-30T02:42:03.220Z,19.50
2023-04-30T02:43:02.541Z,18.58
2023-04-30T02:43:59.442Z,18.98
2023-04-30T02:44:56.385Z,19.70
2023-04-30T02:45:53.296Z,19.75
2023-04-30T02:46:50.427Z,17.58
2023-04-30T02:47:47.663Z,17.62
2023-04-30T02:48:44.688Z,18.02
2023-04-30T02:49:41.882Z,19.27
2023-04-30T02:50:38.845Z,17.33
2023-04-30T02:51:35.752Z,16.85
2023-04-30T02:52:32.839Z,16.52
2023-04-30T02:53:29.871Z,17.60
2023-04-30T02:54:26.905Z,16.80
2023-04-30T02:55:24.790Z,16.42
2023-04-30T02:56:21.847Z,17.62
2023-04-30T02:57:18.850Z,16.83
2023-04-30T02:58:15.806Z,16.95
2023-04-30T02:59:12.864Z,16.40
2023-04-30T03:00:10.458Z,15.98
2023-04-30T03:01:07.445Z,16.70
2023-04-30T03:02:04.613Z,17.12
2023-04-30T03:03:01.814Z,16.73
2023-04-30T03:03:59.644Z,15.73
2023-04-30T03:04:56.919Z,15.98
2023-04-30T03:05:56.978Z,15.55
2023-04-30T03:06:53.993Z,15.13
2023-04-30T03:07:51.022Z,15.05
2023-04-30T03:08:48.813Z,15.15
2023-04-30T03:09:46.809Z,14.73
2023-04-30T03:10:43.599Z,15.63
2023-04-30T03:11:40.598Z,17.23
2023-04-30T03:12:37.512Z,14.80
2023-04-30T03:13:34.463Z,14.95
2023-04-30T03:14:31.330Z,14.52
2023-04-30T03:15:28.168Z,15.75
2023-04-30T03:16:25.303Z,14.38
2023-04-30T03:17:22.269Z,14.38
2023-04-30T03:18:19.500Z,14.65
2023-04-30T03:19:16.821Z,14.45
2023-04-30T03:20:14.573Z,15.10
2023-04-30T03:21:11.480Z,15.30
2023-04-30T03:22:08.583Z,15.23
2023-04-30T03:23:05.576Z,14.82
2023-04-30T03:24:02.517Z,15.20
2023-04-30T03:24:59.531Z,14.05
2023-04-30T03:25:56.532Z,14.50
2023-04-30T03:26:53.486Z,15.75
2023-04-30T03:27:50.502Z,15.70
2023-04-30T03:28:47.587Z,14.70
2023-04-30T03:29:44.582Z,14.60
2023-04-30T03:30:41.785Z,13.77
2023-04-30T03:31:38.814Z,14.23
2023-04-30T03:32:35.957Z,14.38
2023-04-30T03:33:33.537Z,14.43
2023-04-30T03:34:31.935Z,13.80
2023-04-30T03:35:28.827Z,14.23
2023-04-30T03:36:27.044Z,13.62
2023-04-30T03:37:24.034Z,13.52
2023-04-30T03:38:21.113Z,13.80
2023-04-30T03:39:18.092Z,14.32
2023-04-30T03:40:14.975Z,14.48
2023-04-30T03:41:12.004Z,14.48
2023-04-30T03:42:08.996Z,13.90
2023-04-30T03:43:06.167Z,13.62
2023-04-30T03:44:03.236Z,12.93
2023-04-30T03:45:00.263Z,13.43
2023-04-30T03:45:57.359Z,14.52
2023-04-30T03:46:54.434Z,13.73
2023-04-30T03:47:52.804Z,13.43
2023-04-30T03:48:49.767Z,13.27
2023-04-30T03:49:47.075Z,14.25
2023-04-30T03:50:45.407Z,14.98
2023-04-30T03:51:42.389Z,13.35
2023-04-30T03:52:43.728Z,13.75
2023-04-30T03:53:40.857Z,12.77
2023-04-30T03:54:38.085Z,13.68
2023-04-30T03:55:35.923Z,13.77
2023-04-30T03:56:33.858Z,15.65
2023-04-30T03:57:30.772Z,13.57
2023-04-30T03:58:27.652Z,17.55
2023-04-30T03:59:24.644Z,14.65
2023-04-30T04:00:21.753Z,14.85
2023-04-30T04:01:18.846Z,14.80
2023-04-30T04:02:15.867Z,14.05
2023-04-30T04:03:13.040Z,14.68
2023-04-30T04:04:10.174Z,13.73
2023-04-30T04:05:08.435Z,13.85
2023-04-30T04:06:05.651Z,13.10
2023-04-30T04:07:03.988Z,13.77
2023-04-30T04:08:01.341Z,13.60
2023-04-30T04:08:58.268Z,15.18
2023-04-30T04:09:55.512Z,14.77
2023-04-30T04:10:52.609Z,14.05
2023-04-30T04:11:49.668Z,14.15
2023-04-30T04:12:47.014Z,14.87
2023-04-30T04:13:44.001Z,14.25
2023-04-30T04:14:41.013Z,14.90
2023-04-30T04:15:38.056Z,17.40
2023-04-30T04:16:35.150Z,15.15
2023-04-30T04:17:32.195Z,14.43
2023-04-30T04:18:29.239Z,15.55
2023-04-30T04:19:27.050Z,17.35
2023-04-30T04:20:24.079Z,15.18
2023-04-30T04:21:21.608Z,14.90
2023-04-30T04:22:18.539Z,15.45
2023-04-30T04:23:15.570Z,16.27
2023-04-30T04:24:12.688Z,15.50
2023-04-30T04:25:10.751Z,14.27
2023-04-30T04:26:08.390Z,14.13
2023-04-30T04:27:06.008Z,15.10
2023-04-30T04:28:02.888Z,14.45
2023-04-30T04:28:59.821Z,15.75
2023-04-30T04:29:57.254Z,14.60
2023-04-30T04:30:54.272Z,15.80
2023-04-30T04:31:51.430Z,15.88
2023-04-30T04:32:50.765Z,16.12
2023-04-30T04:33:47.783Z,15.73
2023-04-30T04:34:46.156Z,16.08
2023-04-30T04:35:43.090Z,16.83
2023-04-30T04:36:40.154Z,15.50
2023-04-30T04:37:37.265Z,17.67
2023-04-30T04:38:34.256Z,17.42
2023-04-30T04:39:47.672Z,14.98
2023-04-30T04:40:52.344Z,15.43
2023-04-30T04:41:49.244Z,17.23
2023-04-30T04:42:46.744Z,17.30
2023-04-30T04:43:44.093Z,16.52
2023-04-30T04:44:41.557Z,15.88
2023-04-30T04:45:40.862Z,17.80
2023-04-30T04:46:42.538Z,16.35
2023-04-30T04:47:39.514Z,16.52
2023-04-30T04:48:36.336Z,16.55
2023-04-30T04:49:33.084Z,16.35
2023-04-30T04:50:29.920Z,15.38
2023-04-30T04:51:27.181Z,16.05
2023-04-30T04:52:24.355Z,16.60
2023-04-30T04:53:21.121Z,17.30
2023-04-30T04:54:17.871Z,18.15
2023-04-30T04:55:14.667Z,16.83
2023-04-30T04:56:11.553Z,17.37
2023-04-30T04:57:08.381Z,16.27
2023-04-30T04:58:05.563Z,16.67
2023-04-30T04:59:02.600Z,17.58
2023-04-30T04:59:59.395Z,19.60
2023-04-30T05:00:57.601Z,16.87
2023-04-30T05:01:54.437Z,17.10
2023-04-30T05:02:51.687Z,16.87
2023-04-30T05:03:49.880Z,18.35
2023-04-30T05:04:47.438Z,17.83
2023-04-30T05:05:44.431Z,17.85
2023-04-30T05:06:42.880Z,17.52
2023-04-30T05:07:40.254Z,16.85
2023-04-30T05:08:37.085Z,18.87
2023-04-30T05:09:34.015Z,16.50
2023-04-30T05:10:31.062Z,17.33
2023-04-30T05:11:27.900Z,17.65
2023-04-30T05:12:25.087Z,17.67
2023-04-30T05:13:21.891Z,19.60
2023-04-30T05:14:18.949Z,17.17
2023-04-30T05:15:15.816Z,17.73
2023-04-30T05:16:12.637Z,17.48
2023-04-30T05:17:09.447Z,17.67
2023-04-30T05:18:06.454Z,17.87
2023-04-30T05:19:03.476Z,17.23
2023-04-30T05:20:00.218Z,16.52
2023-04-30T05:20:59.976Z,16.02
2023-04-30T05:21:56.749Z,18.65
2023-04-30T05:22:53.598Z,19.40
2023-04-30T05:23:50.527Z,17.70
2023-04-30T05:24:47.872Z,18.50
2023-04-30T05:25:45.736Z,17.70
2023-04-30T05:26:42.594Z,18.30
2023-04-30T05:27:39.584Z,16.98
2023-04-30T05:28:36.453Z,17.75
2023-04-30T05:29:33.656Z,18.23
2023-04-30T05:30:30.753Z,18.40
2023-04-30T05:31:27.597Z,17.37
2023-04-30T05:32:24.446Z,18.87
2023-04-30T05:33:21.203Z,18.12
2023-04-30T05:34:18.011Z,18.35
2023-04-30T05:35:14.814Z,16.87
2023-04-30T05:36:11.797Z,17.40
2023-04-30T05:37:09.394Z,17.80
2023-04-30T05:38:06.263Z,17.95
2023-04-30T05:39:03.002Z,16.98
2023-04-30T05:39:59.943Z,17.23
2023-04-30T05:40:57.058Z,18.23
2023-04-30T05:41:53.875Z,18.73
2023-04-30T05:42:50.603Z,18.55
2023-04-30T05:43:47.971Z,20.30
2023-04-30T05:44:44.980Z,18.48
2023-04-30T05:45:41.865Z,17.20
2023-04-30T05:46:38.967Z,18.17
2023-04-30T05:47:35.980Z,18.40
2023-04-30T05:48:32.822Z,18.05
2023-04-30T05:49:29.861Z,18.50
2023-04-30T05:50:26.653Z,18.37
2023-04-30T05:51:23.473Z,16.95
2023-04-30T05:52:20.406Z,17.92
2023-04-30T05:53:17.164Z,16.67
2023-04-30T05:54:14.001Z,17.17
2023-04-30T05:55:11.419Z,16.95
2023-04-30T05:56:09.363Z,16.00
2023-04-30T05:57:06.134Z,17.52
2023-04-30T05:58:02.934Z,16.87
2023-04-30T05:58:59.764Z,16.23
2023-04-30T05:59:56.738Z,17.65
2023-04-30T06:00:53.621Z,16.40
2023-04-30T06:01:50.809Z,17.08
2023-04-30T06:02:47.911Z,17.20
2023-04-30T06:03:45.040Z,17.87
2023-04-30T06:04:42.567Z,16.48
2023-04-30T06:05:41.778Z,17.15
2023-04-30T06:06:38.769Z,15.93
2023-04-30T06:07:35.650Z,18.48
2023-04-30T06:08:32.568Z,17.12
2023-04-30T06:09:29.393Z,18.73
2023-04-30T06:10:26.916Z,19.60
2023-04-30T06:11:25.899Z,19.30
2023-04-30T06:12:23.476Z,17.42
2023-04-30T06:13:20.317Z,17.33
2023-04-30T06:14:18.048Z,18.20
2023-04-30T06:15:14.857Z,17.00
2023-04-30T06:16:11.793Z,17.92
2023-04-30T06:17:09.059Z,18.87
2023-04-30T06:18:06.223Z,18.85
2023-04-30T06:19:03.128Z,17.98
2023-04-30T06:20:02.604Z,17.23
2023-04-30T06:20:59.946Z,18.65
2023-04-30T06:21:56.785Z,16.35
2023-04-30T06:22:53.835Z,16.60
2023-04-30T06:23:50.655Z,17.95
2023-04-30T06:24:47.458Z,17.05
2023-04-30T06:25:44.575Z,15.80
2023-04-30T06:26:41.396Z,17.00
2023-04-30T06:27:38.194Z,17.40
2023-04-30T06:28:34.959Z,16.90
2023-04-30T06:29:32.196Z,16.55
2023-04-30T06:30:30.616Z,16.77
2023-04-30T06:31:27.700Z,18.08
2023-04-30T06:32:24.602Z,17.33
2023-04-30T06:33:21.825Z,16.08
2023-04-30T06:34:20.166Z,17.05
2023-04-30T06:35:17.056Z,17.77
2023-04-30T06:36:13.928Z,17.62
2023-04-30T06:37:10.708Z,18.48
2023-04-30T06:38:07.458Z,17.02
2023-04-30T06:39:05.726Z,17.15
2023-04-30T06:40:02.556Z,17.62
2023-04-30T06:40:59.366Z,16.95
2023-04-30T06:41:56.530Z,16.52
2023-04-30T06:42:54.669Z,17.05
2023-04-30T06:43:51.546Z,16.17
2023-04-30T06:44:48.808Z,17.33
2023-04-30T06:45:45.916Z,18.05
2023-04-30T06:46:42.822Z,17.40
2023-04-30T06:47:41.963Z,17.50
2023-04-30T06:48:39.183Z,16.75
2023-04-30T06:49:35.919Z,17.45
2023-04-30T06:50:32.825Z,19.02
2023-04-30T06:51:29.695Z,16.33
2023-04-30T06:52:26.559Z,17.27
2023-04-30T06:53:23.355Z,16.95
2023-04-30T06:54:22.945Z,16.45
2023-04-30T06:55:19.789Z,18.17
2023-04-30T06:56:16.679Z,16.30
2023-04-30T06:57:13.513Z,16.90
2023-04-30T06:58:10.726Z,16.08
2023-04-30T06:59:07.899Z,18.60
2023-04-30T07:00:06.787Z,16.83
2023-04-30T07:01:04.019Z,16.75
2023-04-30T07:02:01.166Z,17.92
2023-04-30T07:03:00.933Z,24.80
2023-04-30T07:03:58.048Z,17.83
2023-04-30T07:04:55.028Z,16.17
2023-04-30T07:05:53.992Z,16.67
2023-04-30T07:06:51.184Z,16.98
2023-04-30T07:07:48.177Z,17.12
2023-04-30T07:08:45.023Z,16.30
2023-04-30T07:09:42.056Z,17.12
2023-04-30T07:10:38.924Z,15.93
2023-04-30T07:11:35.799Z,16.00
2023-04-30T07:12:32.683Z,16.58
2023-04-30T07:13:29.813Z,16.83
2023-04-30T07:14:27.103Z,17.48
2023-04-30T07:15:24.073Z,19.92
2023-04-30T07:16:21.355Z,17.02
2023-04-30T07:17:18.685Z,17.70
2023-04-30T07:18:16.553Z,16.77
2023-04-30T07:19:13.782Z,16.35
2023-04-30T07:20:11.490Z,17.40
2023-04-30T07:21:08.885Z,20.95
2023-04-30T07:22:05.755Z,16.60
2023-04-30T07:23:03.242Z,16.23
2023-04-30T07:24:01.162Z,16.55
2023-04-30T07:24:58.221Z,16.17
2023-04-30T07:25:55.119Z,15.30
2023-04-30T07:26:52.291Z,16.48
2023-04-30T07:27:52.012Z,17.67
2023-04-30T07:28:50.050Z,17.20
2023-04-30T07:29:46.924Z,17.48
2023-04-30T07:30:43.713Z,16.77
2023-04-30T07:31:40.654Z,15.60
2023-04-30T07:32:38.742Z,15.80
2023-04-30T07:33:35.702Z,15.32
2023-04-30T07:34:32.592Z,15.68
2023-04-30T07:35:29.541Z,15.10
2023-04-30T07:36:27.744Z,14.87
2023-04-30T07:37:24.555Z,14.52
2023-04-30T07:38:24.103Z,15.00
2023-04-30T07:39:22.262Z,18.45
2023-04-30T07:40:29.150Z,17.35
2023-04-30T07:41:32.654Z,13.75
2023-04-30T07:42:29.491Z,14.25
2023-04-30T07:43:26.386Z,15.52
2023-04-30T07:44:23.155Z,14.45
2023-04-30T07:45:19.963Z,15.23
2023-04-30T07:46:17.489Z,16.65
2023-04-30T07:47:14.404Z,14.57
2023-04-30T07:48:11.272Z,13.98
2023-04-30T07:49:08.042Z,16.52
2023-04-30T07:50:05.323Z,14.98
2023-04-30T07:51:02.325Z,13.32
2023-04-30T07:52:01.060Z,14.32
2023-04-30T07:52:57.939Z,12.82
2023-04-30T07:53:55.591Z,14.10
2023-04-30T07:54:52.442Z,13.43
2023-04-30T07:55:49.444Z,13.10
2023-04-30T07:56:46.504Z,13.32
2023-04-30T07:57:43.361Z,12.82
2023-04-30T07:58:40.194Z,13.10
2023-04-30T07:59:37.030Z,13.07
2023-04-30T08:00:33.784Z,13.73
2023-04-30T08:01:30.730Z,13.00
2023-04-30T08:02:27.872Z,13.93
2023-04-30T08:03:24.999Z,13.93
2023-04-30T08:04:22.671Z,16.05
2023-04-30T08:05:19.724Z,11.93
2023-04-30T08:06:16.652Z,13.95
2023-04-30T08:07:16.235Z,12.35
2023-04-30T08:08:13.926Z,12.85
2023-04-30T08:09:10.945Z,11.93
2023-04-30T08:10:08.291Z,12.15
2023-04-30T08:11:07.017Z,11.50
2023-04-30T08:12:05.276Z,11.85
2023-04-30T08:13:02.136Z,11.95
2023-04-30T08:13:58.985Z,11.70
2023-04-30T08:15:06.299Z,11.50
2023-04-30T08:16:03.501Z,10.50
2023-04-30T08:17:01.397Z,11.23
2023-04-30T08:17:58.500Z,12.48
2023-04-30T08:18:56.222Z,10.02
2023-04-30T08:19:53.506Z,9.80
2023-04-30T08:20:50.606Z,10.10
2023-04-30T08:21:47.489Z,11.68
2023-04-30T08:22:47.437Z,10.68
2023-04-30T08:23:44.635Z,10.43
2023-04-30T08:24:41.698Z,10.30
2023-04-30T08:25:39.308Z,10.07
2023-04-30T08:26:36.358Z,11.43
2023-04-30T08:27:33.352Z,9.07
2023-04-30T08:28:30.902Z,11.25
2023-04-30T08:29:27.986Z,9.60
2023-04-30T08:30:25.138Z,10.77
2023-04-30T08:31:22.483Z,7.57
2023-04-30T08:32:19.974Z,7.78
2023-04-30T08:33:17.001Z,8.90
2023-04-30T08:34:14.856Z,8.35
2023-04-30T08:35:13.375Z,9.07
2023-04-30T08:36:13.076Z,8.98
2023-04-30T08:37:10.892Z,9.55
2023-04-30T08:38:08.750Z,10.13
2023-04-30T08:39:05.585Z,8.05
2023-04-30T08:40:02.437Z,9.48
2023-04-30T08:41:16.614Z,11.35
2023-04-30T08:42:15.425Z,10.55
2023-04-30T08:43:13.124Z,9.15
2023-04-30T08:44:13.069Z,9.23
2023-04-30T08:45:12.051Z,8.48
2023-04-30T08:46:09.032Z,11.10
2023-04-30T08:47:10.844Z,10.32
2023-04-30T08:48:11.718Z,9.60
2023-04-30T08:49:08.869Z,18.10
2023-04-30T08:50:11.684Z,9.57
2023-04-30T08:51:08.845Z,8.55
2023-04-30T08:52:07.466Z,9.45
2023-04-30T08:53:05.145Z,8.68
2023-04-30T08:54:02.745Z,8.15
2023-04-30T08:55:02.505Z,9.55
2023-04-30T08:56:00.692Z,10.73
2023-04-30T08:56:59.243Z,8.80
2023-04-30T08:57:56.237Z,10.63
2023-04-30T08:58:55.130Z,8.50
2023-04-30T08:59:54.879Z,9.18
2023-04-30T09:00:53.411Z,10.85
2023-04-30T09:01:53.061Z,9.15
2023-04-30T09:02:51.339Z,8.80
2023-04-30T09:03:49.858Z,8.98
2023-04-30T09:04:49.947Z,8.73
2023-04-30T09:05:46.848Z,6.80
2023-04-30T09:06:44.526Z,7.45
2023-04-30T09:07:51.955Z,7.97
2023-04-30T09:08:54.492Z,7.03
2023-04-30T09:09:54.771Z,9.88
2023-04-30T09:10:52.045Z,7.85
2023-04-30T09:11:49.267Z,9.07
2023-04-30T09:13:09.277Z,9.38
2023-04-30T09:14:06.268Z,7.05
2023-04-30T09:15:05.378Z,9.70
2023-04-30T09:16:02.269Z,9.88
2023-04-30T09:16:59.114Z,8.70
2023-04-30T09:18:11.966Z,7.78
2023-04-30T09:19:08.900Z,7.90
2023-04-30T09:20:09.943Z,9.35
2023-04-30T09:21:09.057Z,9.20
2023-04-30T09:22:19.944Z,9.15
2023-04-30T09:24:13.685Z,8.80
2023-04-30T09:25:11.783Z,9.25
2023-04-30T09:26:09.132Z,7.65
2023-04-30T09:27:17.391Z,8.85
2023-04-30T09:28:14.934Z,8.82
2023-04-30T09:29:11.904Z,9.40
2023-04-30T09:30:09.502Z,8.45
2023-04-30T09:31:20.161Z,8.18
2023-04-30T09:32:17.154Z,9.15
2023-04-30T09:33:14.031Z,8.88
2023-04-30T09:34:10.968Z,9.23
2023-04-30T09:35:08.410Z,13.62
2023-04-30T09:36:10.066Z,9.45
2023-04-30T09:37:07.899Z,8.10
2023-04-30T09:38:05.095Z,8.73
2023-04-30T09:39:17.695Z,10.30
2023-04-30T09:40:14.666Z,8.05
2023-04-30T09:41:27.654Z,10.25
2023-04-30T09:42:25.011Z,13.50
2023-04-30T09:43:22.157Z,9.85
2023-04-30T09:44:33.116Z,9.93
2023-04-30T09:46:38.671Z,8.23
2023-04-30T09:47:36.183Z,9.80
2023-04-30T09:48:33.204Z,8.68
2023-04-30T09:49:30.008Z,6.55
2023-04-30T09:50:26.840Z,7.60
2023-04-30T09:51:23.674Z,9.23
2023-04-30T09:52:21.474Z,10.45
2023-04-30T09:53:18.559Z,6.87
2023-04-30T09:54:15.792Z,7.30
2023-04-30T09:55:12.654Z,9.55
2023-04-30T09:56:11.885Z,8.82
2023-04-30T09:57:11.323Z,11.27
2023-04-30T09:58:08.205Z,10.25
2023-04-30T09:59:05.903Z,9.32
2023-04-30T10:00:02.927Z,8.95
2023-04-30T10:01:01.058Z,7.62
2023-04-30T10:02:01.580Z,9.32
2023-04-30T10:02:58.725Z,8.88
2023-04-30T10:03:56.155Z,6.87
2023-04-30T10:04:56.637Z,9.70
2023-04-30T10:05:54.273Z,8.75
2023-04-30T10:06:52.973Z,8.50
2023-04-30T10:07:49.847Z,8.63
2023-04-30T10:08:54.166Z,10.57
2023-04-30T10:10:06.676Z,6.53
2023-04-30T10:11:05.064Z,10.10
2023-04-30T10:12:04.135Z,8.40
2023-04-30T10:13:06.488Z,6.55
2023-04-30T10:14:09.076Z,7.20
2023-04-30T10:15:12.101Z,7.15
2023-04-30T10:16:18.891Z,7.55
2023-04-30T10:17:17.465Z,10.93
2023-04-30T10:18:25.504Z,9.18
2023-04-30T10:19:32.286Z,6.65
2023-04-30T10:20:29.925Z,7.37
2023-04-30T10:21:27.447Z,8.10
2023-04-30T10:22:24.444Z,8.48
2023-04-30T10:23:22.327Z,7.53
2023-04-30T10:24:20.840Z,12.23
2023-04-30T10:25:17.795Z,8.00
2023-04-30T10:26:16.563Z,9.20
2023-04-30T10:27:13.562Z,7.30
2023-04-30T10:28:11.100Z,7.82
2023-04-30T10:29:08.472Z,8.13
2023-04-30T10:30:07.236Z,6.62
2023-04-30T10:31:05.595Z,7.68
2023-04-30T10:32:05.291Z,9.65
2023-04-30T10:33:13.596Z,7.45
2023-04-30T10:34:21.980Z,6.32
2023-04-30T10:35:27.869Z,6.68
2023-04-30T10:36:42.677Z,8.55
2023-04-30T10:37:57.982Z,6.95
2023-04-30T10:38:55.504Z,6.28
2023-04-30T10:39:52.642Z,7.47
2023-04-30T10:40:49.794Z,7.82
2023-04-30T10:41:49.627Z,6.55
2023-04-30T10:42:48.336Z,7.70
2023-04-30T10:43:47.464Z,6.40
2023-04-30T10:44:44.366Z,6.78
2023-04-30T10:45:44.093Z,6.07
2023-04-30T10:46:41.252Z,7.10
2023-04-30T10:47:39.349Z,6.12
2023-04-30T10:48:36.313Z,5.90
2023-04-30T10:49:33.606Z,5.95
2023-04-30T10:50:30.821Z,5.93
2023-04-30T10:51:48.905Z,6.20
2023-04-30T10:52:45.855Z,6.40
2023-04-30T10:53:42.953Z,7.47
2023-04-30T10:54:40.525Z,7.18
2023-04-30T10:55:49.504Z,7.72
2023-04-30T10:56:47.559Z,8.05
2023-04-30T10:57:46.799Z,6.62
2023-04-30T10:58:44.343Z,7.50
2023-04-30T10:59:51.205Z,7.65
2023-04-30T11:00:52.162Z,9.93
2023-04-30T11:01:57.505Z,7.37
2023-04-30T11:02:58.977Z,5.47
2023-04-30T11:04:25.395Z,7.15
2023-04-30T11:05:22.674Z,6.68
2023-04-30T11:06:20.477Z,13.60
2023-04-30T11:07:17.328Z,6.20
2023-04-30T11:08:14.277Z,5.93
2023-04-30T11:09:11.080Z,9.73
2023-04-30T11:10:09.740Z,9.20
2023-04-30T11:11:09.334Z,7.32
2023-04-30T11:12:29.862Z,6.78
2023-04-30T11:13:27.624Z,6.87
2023-04-30T11:14:24.535Z,6.45
2023-04-30T11:15:30.932Z,6.62
2023-04-30T11:16:31.829Z,5.20
2023-04-30T11:17:29.114Z,8.75
2023-04-30T11:18:27.569Z,6.57
2023-04-30T11:19:25.621Z,6.25
2023-04-30T11:20:24.897Z,6.72
2023-04-30T11:21:21.963Z,7.35
2023-04-30T11:22:22.805Z,5.65
2023-04-30T11:23:37.899Z,6.47
2023-04-30T11:25:01.296Z,7.65
2023-04-30T11:27:23.654Z,10.18
2023-04-30T11:28:28.024Z,7.68
2023-04-30T11:29:25.159Z,9.38
2023-04-30T11:30:22.487Z,9.93
2023-04-30T11:31:19.767Z,5.45
2023-04-30T11:32:18.100Z,8.48
2023-04-30T11:33:15.025Z,10.15
2023-04-30T11:34:12.614Z,10.27
2023-04-30T11:35:09.974Z,8.20
2023-04-30T11:36:06.889Z,7.57
2023-04-30T11:37:04.046Z,6.20
2023-04-30T11:38:02.126Z,10.55
2023-04-30T11:38:59.298Z,6.35
2023-04-30T11:40:08.251Z,7.37
2023-04-30T11:41:05.556Z,6.93
2023-04-30T11:42:03.330Z,5.80
2023-04-30T11:43:00.184Z,7.57
2023-04-30T11:43:56.959Z,5.93
2023-04-30T11:44:53.795Z,6.03
2023-04-30T11:46:12.561Z,7.60
2023-04-30T11:47:09.533Z,5.82
2023-04-30T11:48:06.397Z,6.85
2023-04-30T11:49:03.368Z,8.85
2023-04-30T11:50:00.150Z,6.10
2023-04-30T11:50:56.929Z,5.62
2023-04-30T11:51:53.892Z,7.12
2023-04-30T11:52:51.765Z,8.00
2023-04-30T11:53:50.243Z,7.45
2023-04-30T11:54:47.101Z,7.28
2023-04-30T11:55:43.904Z,7.78
2023-04-30T11:56:41.515Z,7.28
2023-04-30T11:57:46.854Z,6.93
2023-04-30T11:58:43.822Z,6.15
2023-04-30T11:59:42.679Z,10.35
2023-04-30T12:00:39.741Z,6.28
2023-04-30T12:01:40.451Z,6.00
2023-04-30T12:02:37.461Z,5.72
2023-04-30T12:03:43.960Z,6.95
2023-04-30T12:04:43.728Z,6.90
2023-04-30T12:05:41.269Z,8.45
2023-04-30T12:06:38.278Z,4.95
2023-04-30T12:07:35.186Z,6.20
2023-04-30T12:08:32.029Z,7.78
2023-04-30T12:09:30.196Z,7.35
2023-04-30T12:10:27.417Z,5.78
2023-04-30T12:11:31.574Z,6.35
2023-04-30T12:12:29.607Z,6.05
2023-04-30T12:13:26.508Z,7.50
2023-04-30T12:14:25.265Z,6.95
2023-04-30T12:15:27.120Z,6.72
2023-04-30T12:16:25.440Z,7.15
2023-04-30T12:17:35.152Z,4.97
2023-04-30T12:18:33.397Z,6.15
2023-04-30T12:19:30.300Z,6.35
2023-04-30T12:20:28.763Z,5.82
2023-04-30T12:21:25.663Z,5.43
2023-04-30T12:22:22.766Z,10.13
2023-04-30T12:23:20.488Z,4.97
2023-04-30T12:24:19.021Z,6.55
2023-04-30T12:25:19.181Z,7.35
2023-04-30T12:26:16.053Z,5.50
2023-04-30T12:27:12.946Z,7.12
2023-04-30T12:28:11.065Z,7.30
2023-04-30T12:29:19.114Z,6.45
2023-04-30T12:30:16.104Z,7.40
2023-04-30T12:31:12.980Z,7.72
2023-04-30T12:32:09.938Z,4.68
2023-04-30T12:33:10.861Z,6.82
2023-04-30T12:34:08.931Z,5.37
2023-04-30T12:35:06.546Z,5.65
2023-04-30T12:36:03.588Z,9.85
2023-04-30T12:37:00.519Z,5.55
2023-04-30T12:38:07.449Z,4.55
2023-04-30T12:39:04.313Z,5.15
2023-04-30T12:40:01.466Z,5.53
2023-04-30T12:40:58.351Z,7.05
2023-04-30T12:41:55.365Z,5.95
2023-04-30T12:42:52.230Z,5.47
2023-04-30T12:43:49.257Z,5.32
2023-04-30T12:44:46.168Z,9.88
2023-04-30T12:45:47.505Z,6.43
2023-04-30T12:46:46.964Z,4.87
2023-04-30T12:47:44.682Z,7.05
2023-04-30T12:48:45.752Z,6.30
2023-04-30T12:49:46.726Z,6.07
2023-04-30T12:50:48.266Z,6.87
2023-04-30T12:51:45.160Z,6.65
2023-04-30T12:52:42.410Z,4.70